createdAt,value
2019-02-06T00:00:00.996Z,27.20
2019-02-06T00:02:31.404Z,26.30
2019-02-06T00:05:01.636Z,25.37
2019-02-06T00:07:32.039Z,26.40
2019-02-06T00:10:02.556Z,26.63
2019-02-06T00:12:32.794Z,25.73
2019-02-06T00:15:03.113Z,26.23
2019-02-06T00:17:59.748Z,25.33
2019-02-06T00:20:39.743Z,25.63
2019-02-06T00:23:52.160Z,25.70
2019-02-06T00:26:23.756Z,25.60
2019-02-06T00:29:21.882Z,26.07
2019-02-06T00:32:20.863Z,26.13
2019-02-06T00:35:00.469Z,26.10
2019-02-06T00:37:33.667Z,26.07
2019-02-06T00:40:15.916Z,25.87
2019-02-06T00:43:00.132Z,27.40
2019-02-06T00:45:35.502Z,26.47
2019-02-06T00:48:27.064Z,26.60
2019-02-06T00:50:57.449Z,26.30
2019-02-06T00:53:27.769Z,26.37
2019-02-06T00:55:58.110Z,26.77
2019-02-06T01:00:54.380Z,26.33
2019-02-06T01:13:53.042Z,28.43
2019-02-06T01:16:51.676Z,26.40
2019-02-06T01:19:22.137Z,27.17
2019-02-06T01:21:52.432Z,27.43
2019-02-06T01:24:22.715Z,28.10
2019-02-06T01:26:53.030Z,28.90
2019-02-06T01:29:23.298Z,27.93
2019-02-06T01:32:38.584Z,28.77
2019-02-06T01:35:10.024Z,28.00
2019-02-06T01:37:40.401Z,28.57
2019-02-06T01:40:23.068Z,29.30
2019-02-06T01:43:00.876Z,28.53
2019-02-06T01:45:42.906Z,28.97
2019-02-06T01:51:28.028Z,29.50
2019-02-06T01:57:23.347Z,29.93
2019-02-06T02:00:10.706Z,29.07
2019-02-06T02:03:05.228Z,29.70
2019-02-06T02:06:01.949Z,31.50
2019-02-06T02:08:25.996Z,31.60
2019-02-06T02:11:00.476Z,30.50
2019-02-06T02:13:37.098Z,31.03
2019-02-06T02:16:21.031Z,31.80
2019-02-06T02:18:55.306Z,31.53
2019-02-06T02:21:28.035Z,32.00
2019-02-06T02:23:59.543Z,32.40
2019-02-06T02:26:30.636Z,33.43
2019-02-06T02:29:01.789Z,34.20
2019-02-06T02:31:35.214Z,35.57
2019-02-06T02:34:06.977Z,34.50
2019-02-06T02:36:38.154Z,35.73
2019-02-06T02:39:12.759Z,35.10
2019-02-06T02:41:43.958Z,34.83
2019-02-06T02:44:19.837Z,36.00
2019-02-06T02:46:53.757Z,35.80
2019-02-06T02:49:24.052Z,35.97
2019-02-06T02:51:54.420Z,36.87
2019-02-06T02:54:24.771Z,35.70
2019-02-06T02:56:54.997Z,37.10
2019-02-06T02:59:25.324Z,36.23
2019-02-06T03:05:26.021Z,36.63
2019-02-06T03:08:22.660Z,36.93
2019-02-06T03:15:14.947Z,38.80
2019-02-06T03:18:13.891Z,34.50
2019-02-06T03:21:15.329Z,40.00
2019-02-06T03:24:20.408Z,36.33
2019-02-06T03:27:13.137Z,39.07
2019-02-06T03:30:29.685Z,38.17
2019-02-06T03:33:36.713Z,40.77
2019-02-06T03:36:40.377Z,39.97
2019-02-06T03:39:48.939Z,40.87
2019-02-06T03:42:37.579Z,40.73
2019-02-06T03:45:26.753Z,40.23
2019-02-06T03:48:09.302Z,41.97
2019-02-06T03:50:56.871Z,39.50
2019-02-06T03:57:03.637Z,36.70
2019-02-06T03:59:39.836Z,40.87
2019-02-06T04:02:18.487Z,39.13
2019-02-06T04:04:56.861Z,40.40
2019-02-06T04:07:34.257Z,43.53
2019-02-06T04:10:09.579Z,39.37
2019-02-06T04:12:46.651Z,39.63
2019-02-06T04:15:25.008Z,41.53
2019-02-06T04:17:59.177Z,40.13
2019-02-06T04:20:29.676Z,41.50
2019-02-06T04:22:59.946Z,40.40
2019-02-06T04:25:30.554Z,39.70
2019-02-06T04:28:00.926Z,39.57
2019-02-06T04:30:31.201Z,39.23
2019-02-06T04:33:02.211Z,31.47
2019-02-06T04:35:32.540Z,39.70
2019-02-06T04:38:02.867Z,41.67
2019-02-06T04:40:37.145Z,37.70
2019-02-06T04:43:10.590Z,42.73
2019-02-06T04:45:45.691Z,41.17
2019-02-06T04:48:19.498Z,38.10
2019-02-06T04:50:55.391Z,39.30
2019-02-06T04:53:26.813Z,43.60
2019-02-06T04:56:24.104Z,42.67
2019-02-06T04:59:00.672Z,41.90
2019-02-06T05:01:36.572Z,38.97
2019-02-06T05:04:16.145Z,41.50
2019-02-06T05:06:51.790Z,32.50
2019-02-06T05:09:22.570Z,35.23
2019-02-06T05:11:52.961Z,39.60
2019-02-06T05:14:23.230Z,40.43
2019-02-06T05:16:53.556Z,37.20
2019-02-06T05:19:23.703Z,39.27
2019-02-06T05:21:54.038Z,31.93
2019-02-06T05:24:24.267Z,40.37
2019-02-06T05:33:53.612Z,39.13
2019-02-06T05:36:56.124Z,38.27
2019-02-06T05:39:26.735Z,35.27
2019-02-06T05:41:56.976Z,36.37
2019-02-06T05:44:28.032Z,40.33
2019-02-06T05:46:58.406Z,40.23
2019-02-06T05:49:28.683Z,42.50
2019-02-06T05:51:59.273Z,38.80
2019-02-06T05:54:29.514Z,44.03
2019-02-06T05:56:59.800Z,37.07
2019-02-06T05:59:30.504Z,40.77
2019-02-06T06:02:00.795Z,38.90
2019-02-06T06:04:31.363Z,34.47
2019-02-06T06:08:26.800Z,34.97
2019-02-06T06:10:57.256Z,28.57
2019-02-06T06:13:27.534Z,32.67
2019-02-06T06:15:57.906Z,37.03
2019-02-06T06:18:28.158Z,37.67
2019-02-06T06:20:58.566Z,40.30
2019-02-06T06:23:28.850Z,28.60
2019-02-06T06:25:59.184Z,29.30
2019-02-06T06:28:29.686Z,32.63
2019-02-06T06:31:00.004Z,29.70
2019-02-06T06:33:30.255Z,32.57
2019-02-06T06:36:13.641Z,40.60
2019-02-06T06:38:48.164Z,24.50
2019-02-06T06:42:05.014Z,24.03
2019-02-06T06:45:10.887Z,31.17
2019-02-06T06:47:57.740Z,36.60
2019-02-06T06:50:28.415Z,29.10
2019-02-06T06:52:58.694Z,37.07
2019-02-06T06:55:29.165Z,28.30
2019-02-06T06:57:59.465Z,36.50
2019-02-06T07:00:31.349Z,35.97
2019-02-06T07:03:01.723Z,33.03
2019-02-06T07:06:46.685Z,38.60
2019-02-06T07:09:14.584Z,28.43
2019-02-06T07:11:45.386Z,32.87
2019-02-06T07:14:16.382Z,23.40
2019-02-06T07:16:46.782Z,29.90
2019-02-06T07:19:17.203Z,35.63
2019-02-06T07:24:27.862Z,34.70
2019-02-06T07:27:11.453Z,33.50
2019-02-06T07:29:38.107Z,33.43
2019-02-06T07:32:08.775Z,31.43
2019-02-06T07:34:39.218Z,32.33
2019-02-06T07:37:10.143Z,31.03
2019-02-06T07:40:29.244Z,31.43
2019-02-06T07:43:17.725Z,28.27
2019-02-06T07:46:08.159Z,29.67
2019-02-06T07:49:19.764Z,29.70
2019-02-06T07:51:52.382Z,30.57
2019-02-06T07:54:38.541Z,29.40
2019-02-06T07:57:36.910Z,30.07
2019-02-06T08:00:30.149Z,28.43
2019-02-06T08:03:36.225Z,29.20
2019-02-06T08:06:34.594Z,28.70
2019-02-06T08:09:07.142Z,28.73
2019-02-06T08:11:39.837Z,26.97
2019-02-06T08:14:10.348Z,28.80
2019-02-06T08:16:40.750Z,27.87
2019-02-06T08:19:11.515Z,27.97
2019-02-06T08:21:49.763Z,27.77
2019-02-06T08:24:16.544Z,27.93
2019-02-06T08:26:47.683Z,28.23
2019-02-06T08:29:18.114Z,26.37
2019-02-06T08:31:50.969Z,26.70
2019-02-06T08:38:51.946Z,27.60
2019-02-06T08:49:10.902Z,26.97
2019-02-06T08:51:40.962Z,26.67
2019-02-06T08:54:11.552Z,25.73
2019-02-06T08:56:41.880Z,26.47
2019-02-06T08:59:12.206Z,26.03
2019-02-06T09:03:57.028Z,27.33
2019-02-06T09:06:52.855Z,25.73
2019-02-06T09:09:23.280Z,24.47
2019-02-06T09:11:53.534Z,24.93
2019-02-06T09:14:23.799Z,26.50
2019-02-06T09:16:54.100Z,25.43
2019-02-06T09:19:24.498Z,27.50
2019-02-06T09:21:54.942Z,27.73
2019-02-06T09:24:25.322Z,26.50
2019-02-06T09:26:55.649Z,26.53
2019-02-06T09:29:25.986Z,25.40
2019-02-06T09:39:56.335Z,26.00
2019-02-06T09:42:26.659Z,26.73
2019-02-06T09:44:56.908Z,28.20
2019-02-06T09:47:27.260Z,27.10
2019-02-06T09:49:57.500Z,29.00
2019-02-06T09:52:28.908Z,27.40
2019-02-06T09:59:52.736Z,27.70
2019-02-06T10:03:19.671Z,26.27
2019-02-06T10:05:50.143Z,26.83
2019-02-06T10:08:20.392Z,27.93
2019-02-06T10:10:50.712Z,27.43
2019-02-06T10:13:20.954Z,26.33
2019-02-06T10:19:54.400Z,26.63
2019-02-06T10:22:24.749Z,27.67
2019-02-06T10:36:57.177Z,26.97
2019-02-06T10:52:19.886Z,27.47
2019-02-06T10:54:50.671Z,26.07
2019-02-06T11:05:18.445Z,28.27
2019-02-06T11:07:48.733Z,25.27
2019-02-06T11:11:05.393Z,25.60
2019-02-06T11:13:35.832Z,26.00
2019-02-06T11:17:09.761Z,26.57
2019-02-06T11:19:43.031Z,25.97
2019-02-06T11:23:27.237Z,25.37
2019-02-06T11:25:58.096Z,25.90
2019-02-06T11:28:28.481Z,23.87
2019-02-06T11:34:11.304Z,23.93
2019-02-06T11:36:41.677Z,23.20
2019-02-06T11:42:37.591Z,28.57
2019-02-06T11:45:09.410Z,26.00
2019-02-06T11:47:39.672Z,24.37
2019-02-06T11:50:12.363Z,21.27
2019-02-06T11:52:43.271Z,22.27
2019-02-06T11:55:16.786Z,26.80
2019-02-06T12:03:59.235Z,23.57
2019-02-06T12:06:29.745Z,26.30
2019-02-06T12:09:00.085Z,25.87
2019-02-06T12:11:39.329Z,24.00
2019-02-06T12:15:18.822Z,22.10
2019-02-06T12:18:54.930Z,17.73
2019-02-06T12:21:26.100Z,24.87
2019-02-06T12:28:07.886Z,23.57
2019-02-06T12:34:17.187Z,24.03
2019-02-06T12:36:47.485Z,23.03
2019-02-06T12:39:17.812Z,24.13
2019-02-06T12:41:48.094Z,22.37
2019-02-06T12:44:19.031Z,24.57
2019-02-06T12:46:49.607Z,24.50
2019-02-06T12:49:20.113Z,26.10
2019-02-06T12:51:52.443Z,24.37
2019-02-06T13:02:15.737Z,20.80
2019-02-06T13:04:45.476Z,21.93
2019-02-06T13:07:47.334Z,21.93
2019-02-06T13:10:17.691Z,21.40
2019-02-06T13:13:33.620Z,22.67
2019-02-06T13:16:10.410Z,21.67
2019-02-06T13:18:41.952Z,19.77
2019-02-06T13:21:15.193Z,21.10
2019-02-06T13:23:51.114Z,19.20
2019-02-06T13:26:44.395Z,19.00
2019-02-06T13:29:21.726Z,17.10
2019-02-06T13:32:22.660Z,17.70
2019-02-06T13:34:56.630Z,15.03
2019-02-06T13:37:31.650Z,13.93
2019-02-06T13:39:59.671Z,16.10
2019-02-06T13:42:29.930Z,17.03
2019-02-06T13:45:00.334Z,15.13
2019-02-06T13:47:30.965Z,15.87
2019-02-06T13:50:01.308Z,14.37
2019-02-06T13:52:31.656Z,13.23
2019-02-06T13:55:02.016Z,14.67
2019-02-06T13:57:34.105Z,14.13
2019-02-06T14:00:25.888Z,13.40
2019-02-06T14:03:05.936Z,13.40
2019-02-06T14:05:48.838Z,13.37
2019-02-06T14:08:20.989Z,13.87
2019-02-06T14:11:00.336Z,12.53
2019-02-06T14:13:31.266Z,11.97
2019-02-06T14:16:02.784Z,13.00
2019-02-06T14:18:37.967Z,12.90
2019-02-06T14:21:24.977Z,12.37
2019-02-06T14:24:57.040Z,11.97
2019-02-06T14:28:24.760Z,11.30
2019-02-06T14:31:40.725Z,11.17
2019-02-06T14:34:58.901Z,10.47
2019-02-06T14:41:26.114Z,10.93
2019-02-06T14:44:21.010Z,11.03
2019-02-06T14:47:39.260Z,11.57
2019-02-06T14:50:56.032Z,10.90
2019-02-06T14:54:14.693Z,10.87
2019-02-06T14:57:20.041Z,11.67
2019-02-06T15:00:32.478Z,12.10
2019-02-06T15:04:04.302Z,12.23
2019-02-06T15:08:09.061Z,12.03
2019-02-06T15:10:50.292Z,11.63
2019-02-06T15:14:33.947Z,11.20
2019-02-06T15:17:44.121Z,12.03
2019-02-06T15:21:06.146Z,11.63
2019-02-06T15:24:09.815Z,12.70
2019-02-06T15:27:42.870Z,14.97
2019-02-06T15:30:50.564Z,15.17
2019-02-06T15:33:55.081Z,12.23
2019-02-06T15:37:14.165Z,11.17
2019-02-06T15:40:37.329Z,11.77
2019-02-06T15:43:37.845Z,11.93
2019-02-06T15:47:00.607Z,12.13
2019-02-06T15:49:58.359Z,12.53
2019-02-06T15:53:10.824Z,11.13
2019-02-06T15:56:16.861Z,11.07
2019-02-06T15:59:19.122Z,10.97
2019-02-06T16:02:54.389Z,11.00
2019-02-06T16:06:07.480Z,10.63
2019-02-06T16:08:57.544Z,11.43
2019-02-06T16:11:45.875Z,10.83
2019-02-06T16:15:14.310Z,11.40
2019-02-06T16:18:31.509Z,12.70
2019-02-06T16:21:55.079Z,12.17
2019-02-06T16:25:09.372Z,12.90
2019-02-06T16:28:27.990Z,12.20
2019-02-06T16:31:27.842Z,11.27
2019-02-06T16:34:38.393Z,11.83
2019-02-06T16:37:54.906Z,12.70
2019-02-06T16:41:13.899Z,10.57
2019-02-06T16:44:31.982Z,11.17
2019-02-06T16:51:09.793Z,8.37
2019-02-06T16:54:23.776Z,10.97
2019-02-06T16:57:45.017Z,11.43
2019-02-06T17:00:50.613Z,11.97
2019-02-06T17:04:13.361Z,12.27
2019-02-06T17:07:05.793Z,12.33
2019-02-06T17:10:07.881Z,13.63
2019-02-06T17:13:11.958Z,12.77
2019-02-06T17:16:37.501Z,11.20
2019-02-06T17:19:58.204Z,12.40
2019-02-06T17:22:57.463Z,15.70
2019-02-06T17:26:13.659Z,13.97
2019-02-06T17:29:51.941Z,14.07
2019-02-06T17:33:09.363Z,14.40
2019-02-06T17:39:47.082Z,14.37
2019-02-06T17:42:38.946Z,22.37
2019-02-06T17:45:30.054Z,20.83
2019-02-06T17:56:02.866Z,12.27
2019-02-06T18:02:10.513Z,12.77
2019-02-06T18:05:17.657Z,12.33
2019-02-06T18:07:54.650Z,12.83
2019-02-06T18:10:32.221Z,13.13
2019-02-06T18:13:48.302Z,15.90
2019-02-06T18:16:27.460Z,14.60
2019-02-06T18:19:22.401Z,13.93
2019-02-06T18:22:23.882Z,10.43
2019-02-06T18:25:05.042Z,14.53
2019-02-06T18:28:00.150Z,14.90
2019-02-06T18:30:36.631Z,16.50
2019-02-06T18:33:28.538Z,17.63
2019-02-06T18:36:01.209Z,15.93
2019-02-06T18:38:55.833Z,16.90
2019-02-06T18:41:38.190Z,14.13
2019-02-06T18:44:09.955Z,13.33
2019-02-06T18:46:44.985Z,13.20
2019-02-06T18:49:28.792Z,12.80
2019-02-06T18:52:20.413Z,13.13
2019-02-06T18:55:05.548Z,13.73
2019-02-06T18:58:06.297Z,14.47
2019-02-06T19:01:20.893Z,13.30
2019-02-06T19:04:36.642Z,12.47
2019-02-06T19:07:29.222Z,11.23
2019-02-06T19:09:59.909Z,12.63
2019-02-06T19:12:30.688Z,12.40
2019-02-06T19:15:02.042Z,12.00
2019-02-06T19:17:35.845Z,13.87
2019-02-06T19:20:09.204Z,15.60
2019-02-06T19:22:39.822Z,11.57
2019-02-06T19:25:12.089Z,12.17
2019-02-06T19:30:57.670Z,11.67
2019-02-06T19:33:28.349Z,12.27
2019-02-06T19:36:01.943Z,12.50
2019-02-06T19:38:32.823Z,15.43
2019-02-06T19:41:04.520Z,14.43
2019-02-06T19:43:35.958Z,13.60
2019-02-06T19:46:07.614Z,14.10
2019-02-06T19:48:38.864Z,14.63
2019-02-06T19:51:12.846Z,14.73
2019-02-06T19:53:43.435Z,12.67
2019-02-06T19:56:16.965Z,13.53
2019-02-06T19:59:20.496Z,12.90
2019-02-06T20:09:49.530Z,12.90
2019-02-06T20:13:12.466Z,12.60
2019-02-06T20:15:50.079Z,12.37
2019-02-06T20:18:47.891Z,12.67
2019-02-06T20:22:02.813Z,14.10
2019-02-06T20:25:26.133Z,12.60
2019-02-06T20:28:39.221Z,11.80
2019-02-06T20:35:44.478Z,12.33
2019-02-06T20:41:28.992Z,12.23
2019-02-06T20:44:01.787Z,12.47
2019-02-06T20:46:34.799Z,12.20
2019-02-06T20:49:05.827Z,12.60
2019-02-06T20:51:36.519Z,12.60
2019-02-06T20:54:07.333Z,13.70
2019-02-06T20:56:38.336Z,14.13
2019-02-06T20:59:08.964Z,15.03
2019-02-06T21:01:39.763Z,17.37
2019-02-06T21:04:10.630Z,15.43
2019-02-06T21:06:41.434Z,15.97
2019-02-06T21:09:18.888Z,14.77
2019-02-06T21:11:49.786Z,15.97
2019-02-06T21:14:21.948Z,16.17
2019-02-06T21:16:53.522Z,15.60
2019-02-06T21:19:24.337Z,14.93
2019-02-06T21:21:55.133Z,14.83
2019-02-06T21:24:26.024Z,15.00
2019-02-06T21:26:56.833Z,14.40
2019-02-06T21:29:27.372Z,15.00
2019-02-06T21:31:57.863Z,15.53
2019-02-06T21:34:28.212Z,13.67
2019-02-06T21:36:59.293Z,13.47
2019-02-06T21:39:29.891Z,12.37
2019-02-06T21:42:00.404Z,12.63
2019-02-06T21:44:31.601Z,13.90
2019-02-06T21:47:07.097Z,11.43
2019-02-06T21:49:37.896Z,11.43
2019-02-06T21:52:08.570Z,11.60
2019-02-06T21:54:38.928Z,12.97
2019-02-06T21:57:09.328Z,11.00
2019-02-06T21:59:39.676Z,12.40
2019-02-06T22:02:10.371Z,12.10
2019-02-06T22:04:40.772Z,11.23
2019-02-06T22:07:11.369Z,12.47
2019-02-06T22:09:42.162Z,12.37
2019-02-06T22:12:12.582Z,12.00
2019-02-06T22:14:43.226Z,11.93
2019-02-06T22:17:14.454Z,12.23
2019-02-06T22:19:46.160Z,12.40
2019-02-06T22:22:16.687Z,10.93
2019-02-06T22:24:47.277Z,12.60
2019-02-06T22:27:17.769Z,11.67
2019-02-06T22:29:48.176Z,13.03
2019-02-06T22:32:18.973Z,12.97
2019-02-06T22:34:49.625Z,11.77
2019-02-06T22:37:20.805Z,9.30
2019-02-06T22:39:51.403Z,7.10
2019-02-06T22:42:22.066Z,11.83
2019-02-06T22:44:52.522Z,11.30
2019-02-06T22:47:22.876Z,11.07
2019-02-06T22:49:53.348Z,12.20
2019-02-06T22:52:24.487Z,10.40
2019-02-06T22:54:56.303Z,10.77
2019-02-06T22:57:27.404Z,10.77
2019-02-06T22:59:58.010Z,10.23
2019-02-06T23:02:31.928Z,11.47
2019-02-06T23:05:02.415Z,10.50
2019-02-06T23:07:33.268Z,11.47
2019-02-06T23:10:03.739Z,11.10
2019-02-06T23:12:34.302Z,10.70
2019-02-06T23:15:05.176Z,10.60
2019-02-06T23:17:35.572Z,10.47
2019-02-06T23:20:07.903Z,10.77
2019-02-06T23:22:38.302Z,10.30
2019-02-06T23:25:09.041Z,11.23
2019-02-06T23:27:39.350Z,10.77
2019-02-06T23:30:10.962Z,10.67
2019-02-06T23:32:41.981Z,10.63
2019-02-06T23:35:12.518Z,10.10
2019-02-06T23:37:43.469Z,11.07
2019-02-06T23:40:14.486Z,10.20
2019-02-06T23:42:44.776Z,11.07
2019-02-06T23:45:15.496Z,10.60
2019-02-06T23:47:46.179Z,10.03
2019-02-06T23:50:16.572Z,10.23
2019-02-06T23:52:47.082Z,10.70
2019-02-06T23:55:17.546Z,9.50
2019-02-06T23:57:48.882Z,10.37
